Time;durP1;ratioP1;P1;durP2;ratioP2;P2;SDS_P1;SDS_P2;PMS_P1;PMS_P2;Temp;Humidity;BMP_temperature;BMP_pressure;BME280_temperature;BME280_humidity;BME280_pressure;Samples;Min_cycle;Max_cycle;Signal;HPM_P1;HPM_P2
2024/01/13 00:01:50;;;;;;;218.35;61.22;;;-4.60;99.90;;;;;;5044538;28;20472;-78
2024/01/13 00:04:39;;;;;;;255.68;61.67;;;-4.60;99.90;;;;;;5041031;28;20844;-79
2024/01/13 00:07:27;;;;;;;241.65;61.28;;;-4.70;99.90;;;;;;5042627;28;20135;-78
2024/01/13 00:10:14;;;;;;;237.48;66.47;;;-4.70;99.90;;;;;;5045036;28;20048;-80
2024/01/13 00:13:02;;;;;;;258.90;63.58;;;-4.70;99.90;;;;;;5031412;28;20050;-78
2024/01/13 00:15:49;;;;;;;246.63;63.28;;;-4.80;99.90;;;;;;5027959;28;20425;-78
2024/01/13 00:18:38;;;;;;;231.82;59.97;;;-4.80;99.90;;;;;;5051604;28;20037;-76
2024/01/13 00:21:29;;;;;;;279.23;68.88;;;-4.70;99.90;;;;;;5050287;28;20049;-77
2024/01/13 00:24:16;;;;;;;257.65;66.50;;;-4.70;99.90;;;;;;5042627;28;20041;-79
2024/01/13 00:27:04;;;;;;;282.60;65.35;;;-4.70;99.90;;;;;;5038685;28;20038;-78
2024/01/13 00:29:53;;;;;;;271.35;67.38;;;-4.70;99.90;;;;;;5053262;28;20052;-78
2024/01/13 00:32:43;;;;;;;264.20;66.55;;;-4.70;99.90;;;;;;5053600;28;20134;-79
2024/01/13 00:35:31;;;;;;;294.83;66.65;;;-4.70;99.90;;;;;;5050916;28;20045;-77
2024/01/13 00:38:19;;;;;;;257.08;68.53;;;-4.70;99.90;;;;;;5045873;28;20135;-77
2024/01/13 00:41:21;;;;;;;266.30;68.72;;;-4.70;99.90;;;;;;5052401;28;20044;-77
2024/01/13 00:44:08;;;;;;;237.07;61.55;;;-4.70;99.90;;;;;;5055952;28;20095;-79
2024/01/13 00:46:56;;;;;;;260.33;64.05;;;-4.60;99.90;;;;;;5045151;28;20053;-78
2024/01/13 00:49:43;;;;;;;278.83;69.55;;;-4.60;99.90;;;;;;5035531;28;20052;-77
2024/01/13 00:52:32;;;;;;;254.18;68.43;;;-4.70;99.90;;;;;;5039113;28;20049;-77
2024/01/13 00:55:21;;;;;;;283.73;70.38;;;-4.70;99.90;;;;;;5038358;28;20064;-77
2024/01/13 00:58:10;;;;;;;274.50;72.05;;;-4.70;99.90;;;;;;5038445;28;20044;-78
2024/01/13 01:01:12;;;;;;;270.17;64.93;;;-4.80;99.90;;;;;;5045200;28;20100;-78
2024/01/13 01:04:04;;;;;;;265.90;66.93;;;-4.80;99.90;;;;;;5029194;28;20458;-77
2024/01/13 01:06:55;;;;;;;265.92;69.97;;;-4.80;99.90;;;;;;5068384;28;20029;-76
2024/01/13 01:09:42;;;;;;;275.88;71.68;;;-4.80;99.90;;;;;;5063488;28;20095;-77
2024/01/13 01:12:30;;;;;;;279.52;72.88;;;-4.70;99.90;;;;;;5047466;28;20412;-76
2024/01/13 01:15:18;;;;;;;271.85;72.75;;;-4.80;99.90;;;;;;5030559;28;20048;-75
2024/01/13 01:18:05;;;;;;;260.60;70.07;;;-4.70;99.90;;;;;;5045262;28;20111;-80
2024/01/13 01:20:54;;;;;;;268.83;69.03;;;-4.80;99.90;;;;;;5061686;28;20036;-74
2024/01/13 01:23:43;;;;;;;263.98;69.28;;;-4.80;99.90;;;;;;5056601;28;20092;-78
2024/01/13 01:26:30;;;;;;;281.77;72.63;;;-4.80;99.90;;;;;;5042480;28;20377;-76
2024/01/13 01:29:18;;;;;;;260.98;65.30;;;-4.80;99.90;;;;;;5057021;28;20053;-78
2024/01/13 01:32:08;;;;;;;294.40;74.43;;;-4.80;99.90;;;;;;5041165;28;20041;-77
2024/01/13 01:34:56;;;;;;;295.48;71.13;;;-4.80;99.90;;;;;;5039575;28;20056;-76
2024/01/13 01:37:44;;;;;;;321.35;71.07;;;-4.80;99.90;;;;;;5039454;28;20041;-78
2024/01/13 01:40:39;;;;;;;280.67;70.50;;;-4.90;99.90;;;;;;5033371;28;20034;-77
2024/01/13 01:43:26;;;;;;;300.05;71.90;;;-4.90;99.90;;;;;;5035467;28;20033;-78
2024/01/13 01:46:17;;;;;;;282.08;73.10;;;-4.90;99.90;;;;;;5031693;28;20041;-78
2024/01/13 01:49:06;;;;;;;300.33;75.35;;;-4.90;99.90;;;;;;5039725;28;20049;-75
2024/01/13 01:51:53;;;;;;;275.02;73.80;;;-4.90;99.90;;;;;;5040510;28;20849;-78
2024/01/13 01:54:48;;;;;;;271.85;70.80;;;-4.80;99.90;;;;;;5045040;28;20049;-76
2024/01/13 01:57:39;;;;;;;297.83;73.85;;;-4.80;99.90;;;;;;5052914;28;20041;-79
2024/01/13 02:00:27;;;;;;;278.30;70.88;;;-4.80;99.90;;;;;;5038074;28;20048;-81
2024/01/13 02:03:14;;;;;;;291.70;72.47;;;-4.90;99.90;;;;;;5061218;28;20097;-77
2024/01/13 02:06:03;;;;;;;266.92;71.65;;;-4.90;99.90;;;;;;5043526;28;20059;-77
2024/01/13 02:08:51;;;;;;;277.83;68.65;;;-4.90;99.90;;;;;;5046066;28;20041;-79
2024/01/13 02:11:38;;;;;;;288.33;72.00;;;-4.90;99.90;;;;;;5042520;28;20037;-76
2024/01/13 02:14:25;;;;;;;269.40;67.20;;;-4.90;99.90;;;;;;5048547;28;20041;-78
2024/01/13 02:17:13;;;;;;;285.02;71.47;;;-4.80;99.90;;;;;;5033881;28;20051;-76
2024/01/13 02:20:05;;;;;;;275.50;73.30;;;-4.80;99.90;;;;;;5059557;28;20045;-75
2024/01/13 02:22:54;;;;;;;284.40;73.03;;;-4.90;99.90;;;;;;5051743;28;20033;-77
2024/01/13 02:25:42;;;;;;;277.10;67.28;;;-4.90;99.90;;;;;;5043913;28;20044;-81
2024/01/13 02:28:33;;;;;;;276.13;69.80;;;-4.90;99.90;;;;;;5039081;28;20113;-76
2024/01/13 02:31:33;;;;;;;286.10;72.95;;;-4.90;99.90;;;;;;5046333;28;20041;-76
2024/01/13 02:34:21;;;;;;;288.73;74.80;;;-4.90;99.90;;;;;;5042431;28;20114;-78
2024/01/13 02:37:09;;;;;;;328.20;73.38;;;-4.90;99.90;;;;;;5045667;28;20055;-77
2024/01/13 02:39:56;;;;;;;318.70;74.25;;;-5.00;99.90;;;;;;5019226;28;20068;-77
2024/01/13 02:42:44;;;;;;;301.70;71.60;;;-5.10;99.90;;;;;;5034743;28;20037;-78
2024/01/13 02:45:32;;;;;;;300.83;71.13;;;-5.00;99.90;;;;;;5046722;28;20056;-76
2024/01/13 02:48:20;;;;;;;312.02;73.40;;;-5.00;99.90;;;;;;5029319;28;20037;-80
2024/01/13 02:51:21;;;;;;;285.13;69.38;;;-5.00;99.90;;;;;;5048852;28;20057;-77
2024/01/13 02:54:22;;;;;;;294.85;62.83;;;-4.90;99.90;;;;;;5042995;28;20064;-78
2024/01/13 02:57:09;;;;;;;279.27;67.15;;;-4.90;99.90;;;;;;5037539;28;20056;-78
2024/01/13 02:59:58;;;;;;;270.60;64.00;;;-4.80;99.90;;;;;;5036240;28;20068;-75
2024/01/13 03:02:48;;;;;;;269.13;68.63;;;-4.90;99.90;;;;;;5041142;28;20188;-79
2024/01/13 03:05:36;;;;;;;327.25;70.57;;;-4.90;99.90;;;;;;5041761;28;20053;-77
2024/01/13 03:08:24;;;;;;;280.20;70.47;;;-5.00;99.90;;;;;;5039422;28;20059;-77
2024/01/13 03:11:24;;;;;;;295.30;73.15;;;-5.00;99.90;;;;;;5037092;28;20464;-79
2024/01/13 03:14:13;;;;;;;283.73;71.47;;;-5.10;99.90;;;;;;5033358;28;20053;-78
2024/01/13 03:17:05;;;;;;;287.10;74.05;;;-5.20;99.90;;;;;;5031414;28;20052;-76
2024/01/13 03:19:53;;;;;;;285.52;73.57;;;-5.20;99.90;;;;;;5029297;28;20407;-78
2024/01/13 03:22:40;;;;;;;293.05;71.65;;;-5.20;99.90;;;;;;5033989;28;20060;-77
2024/01/13 03:25:29;;;;;;;339.00;71.43;;;-5.20;99.90;;;;;;5024552;28;20037;-77
2024/01/13 03:28:16;;;;;;;419.90;73.63;;;-5.30;99.90;;;;;;5030468;28;20383;-76
2024/01/13 03:31:16;;;;;;;333.20;71.75;;;-5.20;99.90;;;;;;5017603;28;20147;-78
2024/01/13 03:34:04;;;;;;;297.98;71.45;;;-5.30;99.90;;;;;;5015872;28;20075;-79
2024/01/13 03:36:58;;;;;;;412.17;77.82;;;-5.30;99.90;;;;;;5030197;28;20191;-74
2024/01/13 03:39:48;;;;;;;295.85;71.63;;;-5.30;99.90;;;;;;5027073;28;20045;-78
2024/01/13 03:42:35;;;;;;;298.25;70.93;;;-5.20;99.90;;;;;;5028022;28;20148;-78
2024/01/13 03:45:23;;;;;;;300.95;67.15;;;-5.20;99.90;;;;;;5042316;28;20045;-76
2024/01/13 03:48:10;;;;;;;262.83;62.15;;;-5.20;99.90;;;;;;5015077;28;20033;-78
2024/01/13 03:51:00;;;;;;;261.58;66.57;;;-5.10;99.90;;;;;;5044150;28;20045;-77
2024/01/13 03:53:52;;;;;;;363.27;72.97;;;-5.10;99.90;;;;;;5047587;28;20057;-77
2024/01/13 03:56:39;;;;;;;240.02;61.67;;;-5.20;99.90;;;;;;5034221;28;20076;-78
2024/01/13 03:59:27;;;;;;;247.55;64.70;;;-5.20;99.90;;;;;;5049279;28;20067;-76
2024/01/13 04:02:14;;;;;;;262.95;68.93;;;-5.20;99.90;;;;;;5055753;28;20056;-76
2024/01/13 04:05:01;;;;;;;241.55;66.03;;;-5.20;99.90;;;;;;5044403;28;20044;-76
2024/01/13 04:07:49;;;;;;;255.05;66.72;;;-5.10;99.90;;;;;;5057250;28;20128;-78
2024/01/13 04:10:38;;;;;;;305.25;70.97;;;-5.00;99.90;;;;;;5027090;28;20045;-79
2024/01/13 04:13:25;;;;;;;258.17;65.70;;;-5.00;99.90;;;;;;5021421;28;20037;-77
2024/01/13 04:16:14;;;;;;;244.65;63.95;;;-5.10;99.90;;;;;;5033557;28;20418;-80
2024/01/13 04:19:02;;;;;;;267.90;62.92;;;-5.10;99.90;;;;;;5025800;28;20175;-77
2024/01/13 04:21:50;;;;;;;252.63;58.92;;;-5.10;99.90;;;;;;5040619;28;20040;-78
2024/01/13 04:24:40;;;;;;;257.33;62.67;;;-5.00;99.90;;;;;;5062547;28;20028;-75
2024/01/13 04:27:30;;;;;;;271.40;63.60;;;-5.00;99.90;;;;;;5061095;28;20187;-76
2024/01/13 04:30:19;;;;;;;245.32;63.45;;;-5.10;99.90;;;;;;5020564;28;20052;-80
2024/01/13 04:33:07;;;;;;;268.92;62.33;;;-5.10;99.90;;;;;;5025433;28;20059;-77
2024/01/13 04:35:55;;;;;;;219.65;59.33;;;-5.10;99.90;;;;;;5038842;28;20053;-78
2024/01/13 04:38:46;;;;;;;254.50;65.57;;;-5.10;99.90;;;;;;5048591;28;20039;-75
2024/01/13 04:41:34;;;;;;;250.48;64.40;;;-5.00;99.90;;;;;;5053528;28;20068;-78
2024/01/13 04:44:22;;;;;;;268.45;64.18;;;-5.00;99.90;;;;;;5027191;28;20140;-79
2024/01/13 04:47:10;;;;;;;319.92;65.28;;;-5.00;99.90;;;;;;5036690;28;20112;-78
2024/01/13 04:50:06;;;;;;;258.63;63.03;;;-5.00;99.90;;;;;;5039970;28;20432;-79
2024/01/13 04:53:02;;;;;;;248.30;60.25;;;-5.00;99.90;;;;;;5011777;28;20069;-76
2024/01/13 04:55:51;;;;;;;238.70;58.63;;;-5.10;99.90;;;;;;5039166;28;20071;-78
2024/01/13 04:58:39;;;;;;;254.60;61.00;;;-5.10;99.90;;;;;;5037156;28;20053;-78
2024/01/13 05:01:26;;;;;;;254.52;62.55;;;-5.00;99.90;;;;;;5027315;28;20045;-77
2024/01/13 05:04:13;;;;;;;381.67;65.70;;;-5.00;99.90;;;;;;5043118;28;20041;-79
2024/01/13 05:07:01;;;;;;;255.10;65.47;;;-5.00;99.90;;;;;;5039978;28;20124;-77
2024/01/13 05:09:50;;;;;;;272.67;62.35;;;-5.10;99.90;;;;;;5042895;28;20059;-77
2024/01/13 05:12:39;;;;;;;260.77;61.42;;;-5.10;99.90;;;;;;5052055;28;20536;-77
2024/01/13 05:15:27;;;;;;;264.60;62.13;;;-5.10;99.90;;;;;;5049066;28;21622;-78
2024/01/13 05:18:14;;;;;;;256.90;66.47;;;-5.10;99.90;;;;;;5030574;28;20049;-78
2024/01/13 05:21:05;;;;;;;268.98;64.95;;;-5.10;99.90;;;;;;5035834;28;20041;-78
2024/01/13 05:23:52;;;;;;;225.45;59.15;;;-5.10;99.90;;;;;;5035090;28;20044;-76
2024/01/13 05:26:40;;;;;;;233.32;58.80;;;-5.10;99.90;;;;;;5039828;28;20097;-80
2024/01/13 05:29:30;;;;;;;221.90;59.10;;;-5.10;99.90;;;;;;5040251;28;20098;-76
2024/01/13 05:32:25;;;;;;;203.43;53.40;;;-5.10;99.90;;;;;;5037914;28;20076;-76
2024/01/13 05:35:14;;;;;;;234.93;59.40;;;-5.10;99.90;;;;;;5026865;28;20047;-77
2024/01/13 05:38:01;;;;;;;255.70;57.10;;;-5.00;99.90;;;;;;5038090;28;20184;-77
2024/01/13 05:40:52;;;;;;;225.63;57.25;;;-5.00;99.90;;;;;;5028983;28;20478;-78
2024/01/13 05:43:40;;;;;;;212.43;56.45;;;-5.00;99.90;;;;;;5030240;28;20445;-79
2024/01/13 05:46:32;;;;;;;221.80;58.75;;;-5.00;99.90;;;;;;5045438;28;20057;-78
2024/01/13 05:49:24;;;;;;;232.18;59.63;;;-5.00;99.90;;;;;;5028943;28;20040;-79
2024/01/13 05:52:12;;;;;;;223.70;62.97;;;-5.00;99.90;;;;;;5034899;28;20490;-80
2024/01/13 05:55:02;;;;;;;227.85;59.00;;;-5.00;99.90;;;;;;5051455;28;20045;-74
2024/01/13 05:57:50;;;;;;;226.65;55.60;;;-5.00;99.90;;;;;;5038835;28;20048;-77
2024/01/13 06:00:38;;;;;;;240.15;57.28;;;-5.00;99.90;;;;;;5038410;28;20546;-77
2024/01/13 06:03:27;;;;;;;224.50;59.50;;;-5.00;99.90;;;;;;5022202;28;20033;-77
2024/01/13 06:06:14;;;;;;;253.18;63.80;;;-5.00;99.90;;;;;;5047264;28;20063;-78
2024/01/13 06:09:02;;;;;;;224.23;60.47;;;-5.00;99.90;;;;;;5048942;28;20071;-78
2024/01/13 06:11:52;;;;;;;227.32;59.15;;;-5.10;99.90;;;;;;5043209;28;20053;-78
2024/01/13 06:14:41;;;;;;;224.27;59.72;;;-5.20;99.90;;;;;;5036118;28;20041;-77
2024/01/13 06:17:28;;;;;;;235.20;63.15;;;-5.10;99.90;;;;;;5027971;28;20429;-78
2024/01/13 06:20:18;;;;;;;227.40;61.33;;;-5.10;99.90;;;;;;5036805;28;20040;-78
2024/01/13 06:23:06;;;;;;;249.13;62.92;;;-5.00;99.90;;;;;;5033757;28;20520;-77
2024/01/13 06:25:54;;;;;;;220.07;59.78;;;-5.00;99.90;;;;;;5034477;28;20045;-76
2024/01/13 06:28:41;;;;;;;230.68;64.13;;;-5.00;99.90;;;;;;5042405;28;20036;-74
2024/01/13 06:31:29;;;;;;;207.30;59.10;;;-5.00;99.90;;;;;;5036593;28;20493;-75
2024/01/13 06:34:16;;;;;;;222.95;57.88;;;-5.00;99.90;;;;;;5037898;28;20071;-75
2024/01/13 06:37:04;;;;;;;210.45;59.95;;;-5.00;99.90;;;;;;5028265;28;20253;-75
2024/01/13 06:39:54;;;;;;;219.30;63.53;;;-5.00;99.90;;;;;;5066407;28;20055;-75
2024/01/13 06:42:42;;;;;;;207.20;61.35;;;-5.00;99.90;;;;;;5055900;28;20032;-76
2024/01/13 06:45:32;;;;;;;223.27;64.57;;;-4.90;99.90;;;;;;5042006;28;20041;-75
2024/01/13 06:48:20;;;;;;;239.82;64.78;;;-4.90;99.90;;;;;;5036612;28;20045;-79
2024/01/13 06:51:08;;;;;;;236.30;65.03;;;-4.90;99.90;;;;;;5017240;28;20052;-77
2024/01/13 06:53:58;;;;;;;252.80;67.50;;;-4.90;99.90;;;;;;5037276;28;20378;-75
2024/01/13 06:56:46;;;;;;;245.50;67.13;;;-4.90;99.90;;;;;;5037209;28;20133;-77
2024/01/13 06:59:35;;;;;;;226.85;65.20;;;-4.90;99.90;;;;;;5025292;28;20042;-79
2024/01/13 07:02:25;;;;;;;223.07;64.60;;;-4.90;99.90;;;;;;5030798;28;20111;-77
2024/01/13 07:05:12;;;;;;;205.93;59.80;;;-4.90;99.90;;;;;;5031553;28;20456;-78
2024/01/13 07:08:03;;;;;;;207.20;58.10;;;-4.90;99.90;;;;;;5039494;28;20132;-78
2024/01/13 07:10:53;;;;;;;207.75;63.33;;;-4.90;99.90;;;;;;5040508;28;20041;-77
2024/01/13 07:13:43;;;;;;;213.98;62.42;;;-4.90;99.90;;;;;;5051155;28;20049;-75
2024/01/13 07:16:33;;;;;;;193.25;59.22;;;-4.90;99.90;;;;;;5035621;28;20112;-78
2024/01/13 07:19:21;;;;;;;195.43;53.88;;;-5.00;99.90;;;;;;5056888;28;20025;-77
2024/01/13 07:22:08;;;;;;;190.95;52.97;;;-5.00;99.90;;;;;;5030990;28;20818;-77
2024/01/13 07:24:56;;;;;;;191.35;54.65;;;-5.00;99.90;;;;;;5042896;28;20045;-78
2024/01/13 07:27:45;;;;;;;194.20;53.45;;;-5.00;99.90;;;;;;5036146;28;20099;-78
2024/01/13 07:30:32;;;;;;;166.05;49.85;;;-5.00;99.90;;;;;;5048881;28;20045;-78
2024/01/13 07:33:20;;;;;;;178.60;52.90;;;-5.00;99.90;;;;;;5037537;28;20502;-78
2024/01/13 07:36:07;;;;;;;173.82;53.40;;;-4.90;99.90;;;;;;5036543;28;20052;-77
2024/01/13 07:38:56;;;;;;;171.52;49.25;;;-5.00;99.90;;;;;;5066641;28;20036;-77
2024/01/13 07:41:50;;;;;;;168.07;51.05;;;-5.10;99.90;;;;;;5051137;28;20034;-76
2024/01/13 07:44:41;;;;;;;188.82;53.20;;;-5.10;99.90;;;;;;5055920;28;20044;-77
2024/01/13 07:47:28;;;;;;;193.65;55.72;;;-5.20;99.90;;;;;;5057773;28;20044;-78
2024/01/13 07:50:17;;;;;;;172.73;52.60;;;-5.10;99.90;;;;;;5050467;28;20033;-76
2024/01/13 07:53:05;;;;;;;156.07;48.47;;;-5.10;99.90;;;;;;5041812;28;20044;-77
2024/01/13 07:55:53;;;;;;;144.65;43.47;;;-5.10;99.90;;;;;;5039685;28;20079;-77
2024/01/13 07:58:41;;;;;;;138.13;40.17;;;-5.10;99.90;;;;;;5041393;28;20052;-75
2024/01/13 08:01:30;;;;;;;108.88;36.05;;;-5.10;99.90;;;;;;5037830;28;20053;-77
2024/01/13 08:04:27;;;;;;;114.90;35.13;;;-5.10;99.90;;;;;;5029198;28;20192;-77
2024/01/13 08:07:17;;;;;;;93.80;29.50;;;-5.10;99.90;;;;;;5035596;28;20048;-78
2024/01/13 08:10:06;;;;;;;99.93;31.48;;;-5.10;99.90;;;;;;5043140;28;20146;-78
2024/01/13 08:12:57;;;;;;;102.75;33.40;;;-5.00;99.90;;;;;;5045218;28;20381;-77
2024/01/13 08:15:44;;;;;;;108.32;34.35;;;-5.00;99.90;;;;;;5050117;28;20125;-79
2024/01/13 08:18:34;;;;;;;107.78;33.85;;;-5.00;99.90;;;;;;5036022;28;20515;-78
2024/01/13 08:21:29;;;;;;;121.82;36.63;;;-5.00;99.90;;;;;;5050555;28;20049;-78
2024/01/13 08:24:26;;;;;;;107.90;33.75;;;-5.00;99.90;;;;;;5044934;28;20451;-77
2024/01/13 08:27:17;;;;;;;120.43;37.05;;;-5.00;99.90;;;;;;5042929;28;20041;-80
2024/01/13 08:30:06;;;;;;;108.07;33.35;;;-5.00;99.90;;;;;;5047618;28;20568;-78
2024/01/13 08:32:58;;;;;;;114.28;32.92;;;-5.00;99.90;;;;;;5039643;28;20544;-78
2024/01/13 08:35:48;;;;;;;112.40;34.00;;;-5.00;99.90;;;;;;5040222;28;20037;-78
2024/01/13 08:38:38;;;;;;;98.00;29.92;;;-4.90;99.90;;;;;;5035195;28;20045;-77
2024/01/13 08:41:26;;;;;;;95.00;30.20;;;-4.90;99.90;;;;;;5039790;28;20076;-79
2024/01/13 08:44:20;;;;;;;91.40;30.20;;;-4.90;99.90;;;;;;5040655;28;20501;-78
2024/01/13 08:47:13;;;;;;;87.53;29.40;;;-4.80;99.90;;;;;;5043007;28;20088;-78
2024/01/13 08:50:00;;;;;;;75.18;22.70;;;-4.80;99.90;;;;;;5040550;28;20167;-77
2024/01/13 08:52:51;;;;;;;74.38;23.63;;;-4.70;99.90;;;;;;5037422;28;20041;-77
2024/01/13 08:55:39;;;;;;;58.25;20.15;;;-4.60;99.90;;;;;;5034577;28;20371;-76
2024/01/13 08:58:30;;;;;;;63.03;21.55;;;-4.60;99.90;;;;;;5038225;28;20470;-76
2024/01/13 09:01:19;;;;;;;87.10;25.98;;;-4.50;99.90;;;;;;5028394;28;20128;-77
2024/01/13 09:04:22;;;;;;;71.05;23.90;;;-4.30;99.90;;;;;;5039741;28;20555;-76
2024/01/13 09:07:09;;;;;;;86.53;28.42;;;-4.40;99.90;;;;;;5040302;28;20421;-76
2024/01/13 09:10:02;;;;;;;51.20;17.80;;;-4.30;99.90;;;;;;5045814;28;20103;-75
2024/01/13 09:12:59;;;;;;;70.80;25.25;;;-4.30;99.90;;;;;;5038621;28;20476;-78
2024/01/13 09:15:47;;;;;;;69.10;24.92;;;-4.30;99.90;;;;;;5048357;28;20041;-77
2024/01/13 09:18:35;;;;;;;70.97;24.17;;;-4.30;99.90;;;;;;5059170;28;20047;-77
2024/01/13 09:21:25;;;;;;;62.95;22.20;;;-4.30;99.90;;;;;;5058826;28;20093;-78
2024/01/13 09:24:26;;;;;;;67.55;24.45;;;-4.20;99.90;;;;;;5045969;28;20145;-76
2024/01/13 09:27:16;;;;;;;64.18;26.45;;;-4.20;99.90;;;;;;5068128;28;20129;-75
2024/01/13 09:30:08;;;;;;;61.53;22.33;;;-4.20;99.90;;;;;;5063039;28;20150;-79
2024/01/13 09:33:00;;;;;;;58.30;20.80;;;-4.10;99.90;;;;;;5056663;28;20114;-78
2024/01/13 09:35:49;;;;;;;85.65;27.10;;;-4.10;99.90;;;;;;5048208;28;20042;-76
2024/01/13 09:38:40;;;;;;;73.85;24.77;;;-4.20;99.90;;;;;;5046250;28;20060;-77
2024/01/13 09:41:29;;;;;;;56.15;21.67;;;-4.20;99.90;;;;;;5024803;28;20049;-78
2024/01/13 09:44:29;;;;;;;49.75;20.27;;;-4.10;99.90;;;;;;5039154;28;20049;-77
2024/01/13 09:47:17;;;;;;;42.38;15.70;;;-4.10;99.90;;;;;;5041990;28;20059;-77
2024/01/13 09:50:04;;;;;;;59.45;21.80;;;-4.10;99.90;;;;;;5040611;28;20052;-77
2024/01/13 09:52:55;;;;;;;57.85;19.60;;;-4.00;99.90;;;;;;5045943;28;20404;-79
2024/01/13 09:55:43;;;;;;;57.20;22.63;;;-3.90;99.90;;;;;;5026755;28;20132;-79
2024/01/13 09:58:33;;;;;;;53.08;21.23;;;-3.80;99.90;;;;;;5059748;28;20085;-75
2024/01/13 10:01:21;;;;;;;57.22;21.65;;;-3.70;99.90;;;;;;5051926;28;20048;-77
2024/01/13 10:04:21;;;;;;;59.17;21.23;;;-3.70;99.90;;;;;;5039903;28;20033;-77
2024/01/13 10:07:10;;;;;;;57.83;21.80;;;-3.70;99.90;;;;;;5048729;28;20363;-77
2024/01/13 10:09:59;;;;;;;54.88;21.55;;;-3.70;99.90;;;;;;5041824;28;20060;-78
2024/01/13 10:12:58;;;;;;;60.63;22.88;;;-3.70;99.90;;;;;;5043435;28;20049;-79
2024/01/13 10:15:45;;;;;;;60.88;23.88;;;-3.60;99.90;;;;;;5027863;28;20048;-77
2024/01/13 10:18:34;;;;;;;62.08;23.83;;;-3.70;99.90;;;;;;5048252;28;20125;-77
2024/01/13 10:21:23;;;;;;;70.97;24.60;;;-3.80;99.90;;;;;;5043638;28;20077;-77
2024/01/13 10:24:23;;;;;;;66.65;23.67;;;-3.80;99.90;;;;;;5047443;28;20041;-77
2024/01/13 10:27:11;;;;;;;69.75;25.23;;;-3.90;99.90;;;;;;5036893;28;20041;-77
2024/01/13 10:29:59;;;;;;;68.90;24.60;;;-3.90;99.90;;;;;;5035594;28;20044;-77
2024/01/13 10:32:49;;;;;;;67.95;25.58;;;-3.90;99.90;;;;;;5044771;28;20533;-77
2024/01/13 10:35:36;;;;;;;71.32;25.70;;;-4.00;99.90;;;;;;5038190;28;20038;-78
2024/01/13 10:38:25;;;;;;;78.47;25.45;;;-4.10;99.90;;;;;;5033390;28;20076;-79
2024/01/13 10:41:13;;;;;;;63.08;23.02;;;-4.00;99.90;;;;;;5027653;28;20048;-77
2024/01/13 10:44:16;;;;;;;68.93;23.73;;;-3.90;99.90;;;;;;5037166;28;20049;-77
2024/01/13 10:47:07;;;;;;;77.18;28.05;;;-3.90;99.90;;;;;;5037587;28;20148;-77
2024/01/13 10:49:58;;;;;;;78.72;27.48;;;-3.70;99.90;;;;;;5043996;28;20045;-77
2024/01/13 10:53:16;;;;;;;69.90;25.55;;;-3.50;99.90;;;;;;5042051;28;20195;-76
2024/01/13 10:56:06;;;;;;;62.47;24.55;;;-3.40;99.90;;;;;;5041252;28;20049;-78
2024/01/13 10:58:55;;;;;;;65.97;24.05;;;-3.40;99.90;;;;;;5040369;28;20048;-79
2024/01/13 11:01:46;;;;;;;67.25;24.65;;;-3.40;99.90;;;;;;5040382;28;20047;-77
2024/01/13 11:04:34;;;;;;;81.63;27.27;;;-3.30;99.90;;;;;;5034423;28;20048;-76
2024/01/13 11:07:23;;;;;;;73.18;24.77;;;-3.30;99.90;;;;;;5042444;28;20418;-74
2024/01/13 11:10:17;;;;;;;52.22;21.42;;;-3.40;99.90;;;;;;5054147;28;20025;-76
2024/01/13 11:13:10;;;;;;;57.05;22.17;;;-3.40;99.90;;;;;;5037682;28;20108;-77
2024/01/13 11:16:12;;;;;;;60.17;21.88;;;-3.50;99.90;;;;;;5036560;28;20634;-77
2024/01/13 11:19:00;;;;;;;57.22;23.50;;;-3.50;99.90;;;;;;5036895;28;20048;-76
2024/01/13 11:21:48;;;;;;;59.40;24.30;;;-3.60;99.90;;;;;;5035686;28;20179;-77
2024/01/13 11:24:47;;;;;;;72.22;23.85;;;-3.60;99.90;;;;;;5049521;28;20044;-79
2024/01/13 11:27:35;;;;;;;66.85;24.63;;;-3.70;99.90;;;;;;5035442;28;20044;-79
2024/01/13 11:30:46;;;;;;;70.88;24.90;;;-3.50;99.90;;;;;;5031995;28;20063;-77
2024/01/13 11:33:34;;;;;;;73.25;25.70;;;-3.40;99.90;;;;;;5016790;28;20488;-79
2024/01/13 11:36:22;;;;;;;79.47;28.95;;;-3.30;99.90;;;;;;5043829;28;20077;-77
2024/01/13 11:39:24;;;;;;;91.03;30.73;;;-3.30;99.90;;;;;;5043944;28;20125;-74
2024/01/13 11:42:16;;;;;;;96.05;35.35;;;-3.40;99.90;;;;;;5048459;28;20044;-80
2024/01/13 11:45:09;;;;;;;99.68;36.13;;;-3.50;99.90;;;;;;5024757;28;20448;-78
2024/01/13 11:48:35;;;;;;;92.90;34.55;;;-3.50;99.90;;;;;;5036469;28;20057;-78
2024/01/13 11:52:03;;;;;;;85.63;33.28;;;-3.60;99.90;;;;;;5032365;28;20358;-78
2024/01/13 11:54:53;;;;;;;99.68;39.15;;;-3.70;99.90;;;;;;5048933;28;20045;-76
2024/01/13 11:57:45;;;;;;;91.80;33.35;;;-3.80;99.90;;;;;;5038201;28;20040;-77
2024/01/13 12:00:36;;;;;;;108.50;37.22;;;-3.90;99.90;;;;;;5039862;28;20490;-76
2024/01/13 12:03:24;;;;;;;94.00;35.05;;;-3.90;99.90;;;;;;5068804;28;20056;-75
2024/01/13 12:06:12;;;;;;;84.32;31.65;;;-3.90;99.90;;;;;;5057047;28;20128;-75
2024/01/13 12:09:02;;;;;;;87.95;29.88;;;-3.90;99.90;;;;;;5064396;28;20092;-74
2024/01/13 12:11:55;;;;;;;93.38;34.25;;;-3.80;99.90;;;;;;5032174;28;20383;-78
2024/01/13 12:14:44;;;;;;;98.82;35.05;;;-3.60;99.90;;;;;;5037183;28;20159;-76
2024/01/13 12:17:34;;;;;;;82.05;30.60;;;-3.40;99.90;;;;;;5032945;28;20041;-77
2024/01/13 12:20:22;;;;;;;84.97;32.10;;;-3.50;98.00;;;;;;5036784;28;20152;-77
2024/01/13 12:23:11;;;;;;;90.70;31.88;;;-3.60;91.70;;;;;;5035094;28;20047;-78
2024/01/13 12:26:00;;;;;;;87.78;34.65;;;-3.50;97.60;;;;;;5032565;28;20126;-79
2024/01/13 12:28:58;;;;;;;97.63;33.92;;;-3.60;77.90;;;;;;5034609;28;20052;-79
2024/01/13 12:31:45;;;;;;;86.85;31.45;;;-3.80;79.40;;;;;;5035241;28;20064;-77
2024/01/13 12:34:35;;;;;;;92.25;32.13;;;-3.90;99.90;;;;;;5037413;28;20045;-76
2024/01/13 12:37:25;;;;;;;101.57;37.42;;;-3.80;99.90;;;;;;5045832;28;20493;-77
2024/01/13 12:40:18;;;;;;;100.20;35.00;;;-3.80;99.90;;;;;;5057151;28;20044;-77
2024/01/13 12:43:09;;;;;;;105.88;37.55;;;-4.00;99.90;;;;;;5036758;28;20051;-77
2024/01/13 12:45:59;;;;;;;106.00;37.88;;;-4.10;99.90;;;;;;5031171;28;20123;-77
2024/01/13 12:48:49;;;;;;;111.60;39.85;;;-4.00;99.90;;;;;;5044629;28;20052;-79
2024/01/13 12:51:50;;;;;;;100.25;35.58;;;-3.90;99.90;;;;;;5052847;28;20120;-78
2024/01/13 12:54:39;;;;;;;102.25;35.15;;;-4.00;99.90;;;;;;5036509;28;20049;-76
2024/01/13 12:57:29;;;;;;;97.45;36.50;;;-4.00;99.90;;;;;;5054170;28;20044;-76
2024/01/13 13:00:20;;;;;;;97.70;37.88;;;-4.00;99.90;;;;;;5033237;28;20059;-77
2024/01/13 13:03:11;;;;;;;97.82;36.22;;;-4.00;99.90;;;;;;5028496;28;20049;-75
2024/01/13 13:06:02;;;;;;;91.50;34.10;;;-4.10;99.90;;;;;;5067508;28;20048;-76
2024/01/13 13:08:50;;;;;;;89.30;32.25;;;-4.10;99.90;;;;;;5065455;28;20088;-78
2024/01/13 13:11:41;;;;;;;86.10;32.85;;;-4.00;99.90;;;;;;5050124;28;20341;-78
2024/01/13 13:14:32;;;;;;;91.55;33.40;;;-4.00;99.90;;;;;;5043200;28;20477;-76
2024/01/13 13:17:20;;;;;;;89.70;32.90;;;-4.00;94.90;;;;;;5038366;28;20073;-78
2024/01/13 13:20:08;;;;;;;97.57;35.40;;;-4.10;95.80;;;;;;5027961;28;20121;-76
2024/01/13 13:22:56;;;;;;;95.55;34.33;;;-4.10;99.90;;;;;;5037995;28;20049;-78
2024/01/13 13:25:48;;;;;;;93.53;34.65;;;-4.10;99.90;;;;;;5038758;28;20124;-77
2024/01/13 13:28:42;;;;;;;93.40;34.90;;;-4.00;99.90;;;;;;5034467;28;20120;-78
2024/01/13 13:31:30;;;;;;;104.28;38.65;;;-4.00;96.70;;;;;;5042528;28;20059;-78
2024/01/13 13:34:23;;;;;;;93.22;35.58;;;-4.00;97.50;;;;;;5040194;28;20510;-78
2024/01/13 13:37:15;;;;;;;79.68;34.65;;;-4.00;98.20;;;;;;5041143;28;20115;-78
2024/01/13 13:40:06;;;;;;;89.50;33.40;;;-4.10;99.90;;;;;;5042294;28;20052;-77
2024/01/13 13:42:55;;;;;;;89.53;32.42;;;-4.00;99.90;;;;;;5047222;28;20060;-77
2024/01/13 13:45:49;;;;;;;81.28;29.38;;;-4.00;99.90;;;;;;5047294;28;20468;-79
2024/01/13 13:48:45;;;;;;;86.35;32.20;;;-3.90;97.00;;;;;;5041594;28;20482;-76
2024/01/13 13:51:34;;;;;;;82.35;30.67;;;-3.70;71.90;;;;;;5041084;28;20037;-74
2024/01/13 13:54:21;;;;;;;81.03;30.92;;;-3.70;56.70;;;;;;5026635;28;20047;-77
2024/01/13 13:57:08;;;;;;;83.35;33.55;;;-3.60;55.20;;;;;;5046254;28;20514;-78
2024/01/13 14:00:00;;;;;;;79.25;30.95;;;-3.50;43.80;;;;;;5037449;28;20072;-78
2024/01/13 14:02:49;;;;;;;79.60;32.40;;;-3.40;6.90;;;;;;5037057;28;20049;-79
2024/01/13 14:05:37;;;;;;;78.60;32.10;;;-3.40;1.00;;;;;;5029354;28;20041;-79
2024/01/13 14:08:27;;;;;;;82.53;31.52;;;-3.60;1.00;;;;;;5040683;28;20049;-76
2024/01/13 14:11:15;;;;;;;76.25;31.10;;;-3.60;1.00;;;;;;5042151;28;20052;-77
2024/01/13 14:14:03;;;;;;;78.82;31.27;;;-3.40;20.10;;;;;;5027213;28;20534;-79
2024/01/13 14:16:51;;;;;;;78.15;32.33;;;-3.50;1.00;;;;;;5040669;28;20055;-79